Snohomish County (Paine Field) Airport
KPAE : now visible

Airfield :











YOU CAN JOIN US ON...

 
LOGIN :

Register | Disclaimer

   EN    FR    IT 

 









Legend :    VFR   Marginal VFR   IFR   Intensive IFR   Very Intensive IFR
Visi :
Ceiling :
>= 8 km
>= 3000ft
5 to 8 km
1000 to 3000 ft
1500m to 5 km
500 to 1000 ft
800 to 1500m
200 to 500 ft
< 800m
< 200 ft
Symbols :   Thunderstorms  Fog  Heavy snow  Heavy precipitations  Wind > 20 kt






- Airport Elevation : 606 ft
- IATA code : PAE


KPAE - Snohomish County (Paine Field)

CURRENT METAR :
  • 051853Z 31003KT 5SM BR FEW003 SCT009 OVC040 07/06 A3005 RMK AO2 SLP178 VIS N 2 T00670056

EXPIRED METARs :
  • 051835Z 27004KT 5SM BR FEW003 SCT009 OVC040 07/06 A3005 RMK AO2 T00670056
  • 051753Z 36003KT 5SM BR SCT003 BKN009 OVC041 07/05 A3004 RMK AO2 SLP174 T00670050 10067 20061 53012
  • 051740Z 00000KT 5SM BR SCT004 BKN026 OVC060 07/05 A3003 RMK AO2 T00670050
  • 051653Z 00000KT 7SM BKN007 OVC023 06/04 A3003 RMK AO2 SLP170 T00610044

TAF KPAE
Valid from the 05 at 18:00 until the 06 at 18:00 UTC


051737Z 0518/0618 04003KT P6SM BKN015 BKN025
TEMPO 0518/0520 BKN007
FM052100 VRB05KT P6SM SCT012 BKN030
FM060600 14005KT P6SM OVC050
FM061200 13005KT 6SM BR OVC010



MET'MAP, your aeronautical weather chart ! - Copyright ORBIFLY December 2007 - Disclaimer

ORBIFLY MET'MAP TEAM :

Programming & Development : Alexandra Zaïnal
Concept & original design : Baudouin d'Aumeries
Assistance for programming : Marc-Olivier Méhu
Technical & hardware support : Manuel Goepfert

Contact : metmap@orbifly.com




SOURCES & CREDITS :

   NOAA       Earth
Advisory